sensor_id;sensor_type;location;lat;lon;timestamp;pressure;altitude;pressure_sealevel;temperature;humidity
4199;BME280;2113;50.946;14.610;2023-04-08T00:01:58;97244.28;;;1.62;100.00
4199;BME280;2113;50.946;14.610;2023-04-08T00:04:27;97234.06;;;1.61;100.00
4199;BME280;2113;50.946;14.610;2023-04-08T00:06:56;97239.22;;;1.61;100.00
4199;BME280;2113;50.946;14.610;2023-04-08T00:09:24;97234.22;;;1.58;100.00
4199;BME280;2113;50.946;14.610;2023-04-08T00:11:52;97233.97;;;1.62;100.00
4199;BME280;2113;50.946;14.610;2023-04-08T00:14:20;97231.78;;;1.55;100.00
4199;BME280;2113;50.946;14.610;2023-04-08T00:16:49;97230.88;;;1.56;100.00
4199;BME280;2113;50.946;14.610;2023-04-08T00:19:19;97229.28;;;1.53;100.00
4199;BME280;2113;50.946;14.610;2023-04-08T00:21:47;97226.78;;;1.52;100.00
4199;BME280;2113;50.946;14.610;2023-04-08T00:24:16;97224.00;;;1.56;100.00
4199;BME280;2113;50.946;14.610;2023-04-08T00:26:44;97222.03;;;1.61;100.00
4199;BME280;2113;50.946;14.610;2023-04-08T00:29:13;97231.78;;;1.55;100.00
4199;BME280;2113;50.946;14.610;2023-04-08T00:31:41;97236.09;;;1.54;100.00
4199;BME280;2113;50.946;14.610;2023-04-08T00:34:10;97230.72;;;1.59;100.00
4199;BME280;2113;50.946;14.610;2023-04-08T00:36:40;97237.28;;;1.64;100.00
4199;BME280;2113;50.946;14.610;2023-04-08T00:39:08;97238.94;;;1.65;100.00
4199;BME280;2113;50.946;14.610;2023-04-08T00:41:37;97243.44;;;1.62;100.00
4199;BME280;2113;50.946;14.610;2023-04-08T00:44:05;97239.84;;;1.64;100.00
4199;BME280;2113;50.946;14.610;2023-04-08T00:46:36;97239.22;;;1.61;100.00
4199;BME280;2113;50.946;14.610;2023-04-08T00:49:06;97240.94;;;1.60;100.00
4199;BME280;2113;50.946;14.610;2023-04-08T00:51:34;97242.34;;;1.66;100.00
4199;BME280;2113;50.946;14.610;2023-04-08T00:54:04;97239.13;;;1.62;100.00
4199;BME280;2113;50.946;14.610;2023-04-08T00:56:34;97237.28;;;1.64;100.00
4199;BME280;2113;50.946;14.610;2023-04-08T00:59:03;97239.63;;;1.69;100.00
4199;BME280;2113;50.946;14.610;2023-04-08T01:01:40;97234.72;;;1.64;100.00
4199;BME280;2113;50.946;14.610;2023-04-08T01:04:16;97234.63;;;1.66;100.00
4199;BME280;2113;50.946;14.610;2023-04-08T01:06:50;97231.91;;;1.69;100.00
4199;BME280;2113;50.946;14.610;2023-04-08T01:09:27;97225.16;;;1.66;100.00
4199;BME280;2113;50.946;14.610;2023-04-08T01:11:58;97216.59;;;1.66;100.00
4199;BME280;2113;50.946;14.610;2023-04-08T01:14:30;97226.06;;;1.65;100.00
4199;BME280;2113;50.946;14.610;2023-04-08T01:17:01;97229.41;;;1.67;100.00
4199;BME280;2113;50.946;14.610;2023-04-08T01:19:32;97232.97;;;1.65;100.00
4199;BME280;2113;50.946;14.610;2023-04-08T01:22:07;97229.41;;;1.67;100.00
4199;BME280;2113;50.946;14.610;2023-04-08T01:24:43;97237.13;;;1.67;100.00
4199;BME280;2113;50.946;14.610;2023-04-08T01:27:15;97233.56;;;1.70;100.00
4199;BME280;2113;50.946;14.610;2023-04-08T01:29:44;97237.72;;;1.72;100.00
4199;BME280;2113;50.946;14.610;2023-04-08T01:32:15;97239.47;;;1.72;100.00
4199;BME280;2113;50.946;14.610;2023-04-08T01:34:44;97231.81;;;1.70;100.00
4199;BME280;2113;50.946;14.610;2023-04-08T01:37:13;97231.75;;;1.72;100.00
4199;BME280;2113;50.946;14.610;2023-04-08T01:39:43;97232.50;;;1.74;100.00
4199;BME280;2113;50.946;14.610;2023-04-08T01:42:14;97227.09;;;1.78;100.00
4199;BME280;2113;50.946;14.610;2023-04-08T01:44:43;97229.66;;;1.78;100.00
4199;BME280;2113;50.946;14.610;2023-04-08T01:47:12;97228.94;;;1.76;100.00
4199;BME280;2113;50.946;14.610;2023-04-08T01:49:44;97227.19;;;1.77;100.00
4199;BME280;2113;50.946;14.610;2023-04-08T01:52:13;97226.38;;;1.76;100.00
4199;BME280;2113;50.946;14.610;2023-04-08T01:54:44;97235.00;;;1.75;100.00
4199;BME280;2113;50.946;14.610;2023-04-08T01:57:18;97234.72;;;1.80;100.00
4199;BME280;2113;50.946;14.610;2023-04-08T01:59:51;97232.34;;;1.77;100.00
4199;BME280;2113;50.946;14.610;2023-04-08T02:02:21;97235.75;;;1.77;100.00
4199;BME280;2113;50.946;14.610;2023-04-08T02:04:52;97227.91;;;1.79;100.00
4199;BME280;2113;50.946;14.610;2023-04-08T02:07:21;97231.41;;;1.78;100.00
4199;BME280;2113;50.946;14.610;2023-04-08T02:09:49;97233.00;;;1.81;100.00
4199;BME280;2113;50.946;14.610;2023-04-08T02:12:19;97238.81;;;1.84;100.00
4199;BME280;2113;50.946;14.610;2023-04-08T02:15:12;97236.41;;;1.81;100.00
4199;BME280;2113;50.946;14.610;2023-04-08T02:17:44;97241.63;;;1.79;100.00
4199;BME280;2113;50.946;14.610;2023-04-08T02:20:16;97239.88;;;1.80;100.00
4199;BME280;2113;50.946;14.610;2023-04-08T02:22:48;97229.28;;;1.86;100.00
4199;BME280;2113;50.946;14.610;2023-04-08T02:25:22;97238.59;;;1.89;100.00
4199;BME280;2113;50.946;14.610;2023-04-08T02:27:53;97237.69;;;1.90;100.00
4199;BME280;2113;50.946;14.610;2023-04-08T02:30:24;97235.25;;;1.87;100.00
4199;BME280;2113;50.946;14.610;2023-04-08T02:32:55;97245.56;;;1.87;100.00
4199;BME280;2113;50.946;14.610;2023-04-08T02:35:26;97243.72;;;1.89;100.00
4199;BME280;2113;50.946;14.610;2023-04-08T02:37:55;97243.72;;;1.89;100.00
4199;BME280;2113;50.946;14.610;2023-04-08T02:40:25;97244.56;;;1.89;100.00
4199;BME280;2113;50.946;14.610;2023-04-08T02:42:57;97241.56;;;1.97;100.00
4199;BME280;2113;50.946;14.610;2023-04-08T02:45:28;97241.81;;;1.92;100.00
4199;BME280;2113;50.946;14.610;2023-04-08T02:47:59;97236.66;;;1.92;100.00
4199;BME280;2113;50.946;14.610;2023-04-08T02:50:28;97234.06;;;1.92;100.00
4199;BME280;2113;50.946;14.610;2023-04-08T02:52:56;97247.63;;;1.96;100.00
4199;BME280;2113;50.946;14.610;2023-04-08T02:55:25;97241.66;;;1.95;100.00
4199;BME280;2113;50.946;14.610;2023-04-08T02:57:53;97246.78;;;1.95;100.00
4199;BME280;2113;50.946;14.610;2023-04-08T03:00:23;97245.97;;;1.95;100.00
4199;BME280;2113;50.946;14.610;2023-04-08T03:02:51;97243.31;;;1.96;100.00
4199;BME280;2113;50.946;14.610;2023-04-08T03:05:20;97244.91;;;1.99;100.00
4199;BME280;2113;50.946;14.610;2023-04-08T03:07:48;97246.78;;;1.95;100.00
4199;BME280;2113;50.946;14.610;2023-04-08T03:10:16;97246.78;;;1.95;100.00
4199;BME280;2113;50.946;14.610;2023-04-08T03:12:45;97239.91;;;1.96;100.00
4199;BME280;2113;50.946;14.610;2023-04-08T03:15:13;97238.91;;;1.98;100.00
4199;BME280;2113;50.946;14.610;2023-04-08T03:17:43;97242.31;;;1.99;100.00
4199;BME280;2113;50.946;14.610;2023-04-08T03:20:11;97244.91;;;1.99;100.00
4199;BME280;2113;50.946;14.610;2023-04-08T03:22:40;97240.72;;;1.96;100.00
4199;BME280;2113;50.946;14.610;2023-04-08T03:25:09;97243.22;;;1.98;100.00
4199;BME280;2113;50.946;14.610;2023-04-08T03:27:38;97244.06;;;1.98;100.00
4199;BME280;2113;50.946;14.610;2023-04-08T03:30:07;97243.16;;;1.99;100.00
4199;BME280;2113;50.946;14.610;2023-04-08T03:32:35;97250.72;;;2.02;100.00
4199;BME280;2113;50.946;14.610;2023-04-08T03:35:07;97250.88;;;1.99;100.00
4199;BME280;2113;50.946;14.610;2023-04-08T03:37:35;97242.25;;;2.00;100.00
4199;BME280;2113;50.946;14.610;2023-04-08T03:40:05;97247.16;;;2.05;100.00
4199;BME280;2113;50.946;14.610;2023-04-08T03:42:34;97245.66;;;2.01;100.00
4199;BME280;2113;50.946;14.610;2023-04-08T03:45:03;97238.75;;;2.01;100.00
4199;BME280;2113;50.946;14.610;2023-04-08T03:47:32;97241.34;;;2.01;100.00
4199;BME280;2113;50.946;14.610;2023-04-08T03:50:01;97243.63;;;2.06;100.00
4199;BME280;2113;50.946;14.610;2023-04-08T03:52:31;97243.63;;;2.06;100.00
4199;BME280;2113;50.946;14.610;2023-04-08T03:54:59;97243.63;;;2.06;100.00
4199;BME280;2113;50.946;14.610;2023-04-08T03:57:27;97244.38;;;2.08;100.00
4199;BME280;2113;50.946;14.610;2023-04-08T03:59:56;97245.31;;;2.07;100.00
4199;BME280;2113;50.946;14.610;2023-04-08T04:02:25;97249.31;;;2.12;100.00
4199;BME280;2113;50.946;14.610;2023-04-08T04:04:53;97248.47;;;2.12;100.00
4199;BME280;2113;50.946;14.610;2023-04-08T04:07:22;97263.84;;;2.13;100.00
4199;BME280;2113;50.946;14.610;2023-04-08T04:09:51;97259.53;;;2.14;100.00
4199;BME280;2113;50.946;14.610;2023-04-08T04:12:22;97262.84;;;2.16;100.00
4199;BME280;2113;50.946;14.610;2023-04-08T04:14:51;97263.69;;;2.17;100.00
4199;BME280;2113;50.946;14.610;2023-04-08T04:17:19;97261.03;;;2.18;100.00
4199;BME280;2113;50.946;14.610;2023-04-08T04:19:48;97265.34;;;2.18;100.00
4199;BME280;2113;50.946;14.610;2023-04-08T04:22:16;97275.41;;;2.22;100.00
4199;BME280;2113;50.946;14.610;2023-04-08T04:24:46;97277.66;;;2.28;100.00
4199;BME280;2113;50.946;14.610;2023-04-08T04:27:16;97276.75;;;2.29;100.00
4199;BME280;2113;50.946;14.610;2023-04-08T04:29:44;97279.31;;;2.29;100.00
4199;BME280;2113;50.946;14.610;2023-04-08T04:32:12;97286.69;;;2.35;100.00
4199;BME280;2113;50.946;14.610;2023-04-08T04:34:41;97284.94;;;2.36;100.00
4199;BME280;2113;50.946;14.610;2023-04-08T04:37:10;97295.63;;;2.45;100.00
4199;BME280;2113;50.946;14.610;2023-04-08T04:39:39;97294.88;;;2.43;100.00
4199;BME280;2113;50.946;14.610;2023-04-08T04:42:08;97298.75;;;2.50;100.00
4199;BME280;2113;50.946;14.610;2023-04-08T04:44:37;97304.56;;;2.54;100.00
4199;BME280;2113;50.946;14.610;2023-04-08T04:47:06;97304.22;;;2.60;100.00
4199;BME280;2113;50.946;14.610;2023-04-08T04:49:34;97313.81;;;2.58;100.00
4199;BME280;2113;50.946;14.610;2023-04-08T04:52:04;97313.53;;;2.63;100.00
4199;BME280;2113;50.946;14.610;2023-04-08T04:54:32;97325.94;;;2.72;100.00
4199;BME280;2113;50.946;14.610;2023-04-08T04:57:00;97327.41;;;2.76;100.00
4199;BME280;2113;50.946;14.610;2023-04-08T04:59:28;97328.59;;;2.86;100.00
4199;BME280;2113;50.946;14.610;2023-04-08T05:01:58;97324.81;;;2.92;100.00
4199;BME280;2113;50.946;14.610;2023-04-08T05:04:27;97332.47;;;2.93;100.00
4199;BME280;2113;50.946;14.610;2023-04-08T05:06:57;97338.56;;;2.92;100.00
4199;BME280;2113;50.946;14.610;2023-04-08T05:09:26;97328.06;;;2.95;100.00
4199;BME280;2113;50.946;14.610;2023-04-08T05:11:56;97331.41;;;2.97;100.00
4199;BME280;2113;50.946;14.610;2023-04-08T05:14:24;97332.41;;;2.95;100.00
4199;BME280;2113;50.946;14.610;2023-04-08T05:16:52;97343.78;;;2.91;100.00
4199;BME280;2113;50.946;14.610;2023-04-08T05:19:22;97343.88;;;2.89;100.00
4199;BME280;2113;50.946;14.610;2023-04-08T05:21:50;97349.88;;;2.90;100.00
4199;BME280;2113;50.946;14.610;2023-04-08T05:24:18;97343.88;;;2.89;100.00
4199;BME280;2113;50.946;14.610;2023-04-08T05:26:46;97359.19;;;2.92;100.00
4199;BME280;2113;50.946;14.610;2023-04-08T05:29:19;97362.59;;;2.93;100.00
4199;BME280;2113;50.946;14.610;2023-04-08T05:31:48;97353.63;;;2.84;100.00
4199;BME280;2113;50.946;14.610;2023-04-08T05:34:16;97363.03;;;2.85;100.00
4199;BME280;2113;50.946;14.610;2023-04-08T05:36:50;97364.13;;;2.81;100.00
4199;BME280;2113;50.946;14.610;2023-04-08T05:39:19;97364.94;;;2.81;100.00
4199;BME280;2113;50.946;14.610;2023-04-08T05:41:48;97375.19;;;2.83;100.00
4199;BME280;2113;50.946;14.610;2023-04-08T05:44:16;97376.50;;;2.90;100.00
4199;BME280;2113;50.946;14.610;2023-04-08T05:46:44;97380.13;;;3.02;100.00
4199;BME280;2113;50.946;14.610;2023-04-08T05:49:13;97381.31;;;3.12;100.00
4199;BME280;2113;50.946;14.610;2023-04-08T05:51:43;97378.22;;;3.21;100.00
4199;BME280;2113;50.946;14.610;2023-04-08T05:54:12;97376.28;;;3.25;100.00
4199;BME280;2113;50.946;14.610;2023-04-08T05:56:41;97377.97;;;3.26;100.00
4199;BME280;2113;50.946;14.610;2023-04-08T05:59:12;97378.50;;;3.31;100.00
4199;BME280;2113;50.946;14.610;2023-04-08T06:01:40;97380.63;;;3.24;100.00
4199;BME280;2113;50.946;14.610;2023-04-08T06:04:09;97379.88;;;3.22;100.00
4199;BME280;2113;50.946;14.610;2023-04-08T06:06:40;97384.59;;;3.30;100.00
4199;BME280;2113;50.946;14.610;2023-04-08T06:09:09;97383.94;;;3.26;100.00
4199;BME280;2113;50.946;14.610;2023-04-08T06:11:38;97392.16;;;3.33;100.00
4199;BME280;2113;50.946;14.610;2023-04-08T06:14:07;97393.44;;;3.26;100.00
4199;BME280;2113;50.946;14.610;2023-04-08T06:16:36;97391.41;;;3.31;100.00
4199;BME280;2113;50.946;14.610;2023-04-08T06:19:05;97397.56;;;3.28;100.00
4199;BME280;2113;50.946;14.610;2023-04-08T06:21:33;97403.78;;;3.26;99.95
4199;BME280;2113;50.946;14.610;2023-04-08T06:24:01;97404.75;;;3.23;99.35
4199;BME280;2113;50.946;14.610;2023-04-08T06:26:29;97412.16;;;3.29;99.33
4199;BME280;2113;50.946;14.610;2023-04-08T06:29:00;97417.44;;;3.28;99.75
4199;BME280;2113;50.946;14.610;2023-04-08T06:31:30;97418.97;;;3.30;99.96
4199;BME280;2113;50.946;14.610;2023-04-08T06:33:59;97418.28;;;3.42;100.00
4199;BME280;2113;50.946;14.610;2023-04-08T06:36:27;97416.38;;;3.46;99.95
4199;BME280;2113;50.946;14.610;2023-04-08T06:38:56;97415.28;;;3.50;99.47
4199;BME280;2113;50.946;14.610;2023-04-08T06:41:24;97417.88;;;3.50;98.33
4199;BME280;2113;50.946;14.610;2023-04-08T06:44:02;97419.09;;;3.58;97.93
4199;BME280;2113;50.946;14.610;2023-04-08T06:46:30;97420.19;;;3.54;97.47
4199;BME280;2113;50.946;14.610;2023-04-08T06:48:59;97429.16;;;3.63;97.64
4199;BME280;2113;50.946;14.610;2023-04-08T06:51:27;97428.63;;;3.72;97.75
4199;BME280;2113;50.946;14.610;2023-04-08T06:53:55;97435.44;;;3.73;96.82
4199;BME280;2113;50.946;14.610;2023-04-08T06:56:24;97431.06;;;3.89;96.58
4199;BME280;2113;50.946;14.610;2023-04-08T06:58:52;97435.97;;;3.94;95.13
4199;BME280;2113;50.946;14.610;2023-04-08T07:01:23;97439.56;;;3.91;95.52
4199;BME280;2113;50.946;14.610;2023-04-08T07:03:51;97441.41;;;3.89;95.48
4199;BME280;2113;50.946;14.610;2023-04-08T07:06:19;97444.19;;;4.01;94.83
4199;BME280;2113;50.946;14.610;2023-04-08T07:08:48;97454.00;;;4.10;94.92
4199;BME280;2113;50.946;14.610;2023-04-08T07:11:17;97454.63;;;4.13;94.44
4199;BME280;2113;50.946;14.610;2023-04-08T07:13:47;97462.94;;;4.04;94.76
4199;BME280;2113;50.946;14.610;2023-04-08T07:16:15;97457.50;;;4.09;95.66
4199;BME280;2113;50.946;14.610;2023-04-08T07:18:45;97467.84;;;4.09;95.08
4199;BME280;2113;50.946;14.610;2023-04-08T07:21:14;97460.28;;;4.06;94.69
4199;BME280;2113;50.946;14.610;2023-04-08T07:23:42;97471.50;;;3.90;95.35
4199;BME280;2113;50.946;14.610;2023-04-08T07:26:11;97476.28;;;3.82;95.62
4199;BME280;2113;50.946;14.610;2023-04-08T07:28:39;97479.38;;;3.73;96.17
4199;BME280;2113;50.946;14.610;2023-04-08T07:31:12;97480.94;;;3.76;95.87
4199;BME280;2113;50.946;14.610;2023-04-08T07:33:40;97483.16;;;3.68;96.00
4199;BME280;2113;50.946;14.610;2023-04-08T07:36:11;97486.03;;;3.77;96.28
4199;BME280;2113;50.946;14.610;2023-04-08T07:38:40;97484.25;;;3.93;95.07
4199;BME280;2113;50.946;14.610;2023-04-08T07:41:08;97479.66;;;4.13;94.91
4199;BME280;2113;50.946;14.610;2023-04-08T07:43:37;97483.06;;;4.13;93.95
4199;BME280;2113;50.946;14.610;2023-04-08T07:46:06;97485.41;;;4.32;94.50
4199;BME280;2113;50.946;14.610;2023-04-08T07:48:35;97484.50;;;4.33;93.56
4199;BME280;2113;50.946;14.610;2023-04-08T07:51:03;97498.34;;;4.32;93.39
4199;BME280;2113;50.946;14.610;2023-04-08T07:53:38;97505.84;;;4.37;93.33
4199;BME280;2113;50.946;14.610;2023-04-08T07:56:12;97502.66;;;4.17;92.06
4199;BME280;2113;50.946;14.610;2023-04-08T07:58:41;97513.72;;;4.05;92.61
4199;BME280;2113;50.946;14.610;2023-04-08T08:01:16;97518.22;;;4.02;93.29
4199;BME280;2113;50.946;14.610;2023-04-08T08:03:47;97514.50;;;4.21;93.35
4199;BME280;2113;50.946;14.610;2023-04-08T08:06:16;97514.13;;;4.27;92.57
4199;BME280;2113;50.946;14.610;2023-04-08T08:08:46;97512.94;;;4.33;91.86
4199;BME280;2113;50.946;14.610;2023-04-08T08:11:14;97517.13;;;4.50;92.99
4199;BME280;2113;50.946;14.610;2023-04-08T08:13:43;97523.31;;;4.61;91.87
4199;BME280;2113;50.946;14.610;2023-04-08T08:16:11;97522.56;;;4.45;91.29
4199;BME280;2113;50.946;14.610;2023-04-08T08:18:39;97532.00;;;4.46;92.09
4199;BME280;2113;50.946;14.610;2023-04-08T08:21:08;97536.03;;;4.36;91.80
4199;BME280;2113;50.946;14.610;2023-04-08T08:23:36;97527.16;;;4.40;91.77
4199;BME280;2113;50.946;14.610;2023-04-08T08:26:08;97530.31;;;4.45;91.36
4199;BME280;2113;50.946;14.610;2023-04-08T08:28:36;97537.50;;;4.40;91.50
4199;BME280;2113;50.946;14.610;2023-04-08T08:31:05;97532.72;;;4.34;91.50
4199;BME280;2113;50.946;14.610;2023-04-08T08:33:34;97534.28;;;4.37;91.35
4199;BME280;2113;50.946;14.610;2023-04-08T08:36:03;97534.00;;;4.41;91.59
4199;BME280;2113;50.946;14.610;2023-04-08T08:38:33;97537.00;;;4.49;91.46
4199;BME280;2113;50.946;14.610;2023-04-08T08:41:01;97536.25;;;4.61;91.60
4199;BME280;2113;50.946;14.610;2023-04-08T08:43:32;97533.84;;;4.58;89.86
4199;BME280;2113;50.946;14.610;2023-04-08T08:46:00;97544.63;;;4.37;90.25
4199;BME280;2113;50.946;14.610;2023-04-08T08:48:30;97549.97;;;4.34;90.61
4199;BME280;2113;50.946;14.610;2023-04-08T08:50:59;97552.56;;;4.34;90.34
4199;BME280;2113;50.946;14.610;2023-04-08T08:53:29;97559.13;;;4.53;89.80
4199;BME280;2113;50.946;14.610;2023-04-08T08:56:01;97562.13;;;4.61;89.17
4199;BME280;2113;50.946;14.610;2023-04-08T08:58:46;97559.53;;;4.61;89.27
4199;BME280;2113;50.946;14.610;2023-04-08T09:01:34;97555.47;;;4.57;89.26
4199;BME280;2113;50.946;14.610;2023-04-08T09:04:10;97561.66;;;4.69;89.35
4199;BME280;2113;50.946;14.610;2023-04-08T09:06:39;97571.91;;;4.71;88.55
4199;BME280;2113;50.946;14.610;2023-04-08T09:09:07;97576.06;;;4.59;87.34
4199;BME280;2113;50.946;14.610;2023-04-08T09:11:38;97578.16;;;4.52;87.78
4199;BME280;2113;50.946;14.610;2023-04-08T09:14:19;97582.88;;;4.46;87.81
4199;BME280;2113;50.946;14.610;2023-04-08T09:16:49;97583.03;;;4.43;88.12
4199;BME280;2113;50.946;14.610;2023-04-08T09:19:18;97587.41;;;4.56;89.08
4199;BME280;2113;50.946;14.610;2023-04-08T09:22:03;97583.94;;;4.72;89.25
4199;BME280;2113;50.946;14.610;2023-04-08T09:24:32;97590.41;;;4.64;87.57
4199;BME280;2113;50.946;14.610;2023-04-08T09:27:01;97595.34;;;4.53;88.22
4199;BME280;2113;50.946;14.610;2023-04-08T09:29:31;97595.03;;;4.74;88.21
4199;BME280;2113;50.946;14.610;2023-04-08T09:32:04;97592.47;;;4.88;86.50
4199;BME280;2113;50.946;14.610;2023-04-08T09:34:33;97591.91;;;4.83;85.97
4199;BME280;2113;50.946;14.610;2023-04-08T09:37:02;97598.53;;;4.73;86.91
4199;BME280;2113;50.946;14.610;2023-04-08T09:39:31;97593.19;;;4.76;87.30
4199;BME280;2113;50.946;14.610;2023-04-08T09:41:59;97601.06;;;4.88;87.05
4199;BME280;2113;50.946;14.610;2023-04-08T09:44:32;97598.16;;;4.79;85.71
4199;BME280;2113;50.946;14.610;2023-04-08T09:47:08;97604.75;;;4.98;86.02
4199;BME280;2113;50.946;14.610;2023-04-08T09:49:41;97609.38;;;5.08;85.30
4199;BME280;2113;50.946;14.610;2023-04-08T09:52:14;97608.94;;;5.01;85.66
4199;BME280;2113;50.946;14.610;2023-04-08T09:54:51;97610.28;;;5.07;84.53
4199;BME280;2113;50.946;14.610;2023-04-08T09:57:26;97615.56;;;4.91;85.92
4199;BME280;2113;50.946;14.610;2023-04-08T10:00:03;97619.59;;;4.67;84.82
4199;BME280;2113;50.946;14.610;2023-04-08T10:02:54;97610.16;;;4.65;84.61
4199;BME280;2113;50.946;14.610;2023-04-08T10:05:24;97610.34;;;4.62;84.34
4199;BME280;2113;50.946;14.610;2023-04-08T10:07:55;97617.72;;;4.54;84.13
4199;BME280;2113;50.946;14.610;2023-04-08T10:10:24;97621.50;;;4.49;84.05
4199;BME280;2113;50.946;14.610;2023-04-08T10:12:53;97611.38;;;4.60;85.47
4199;BME280;2113;50.946;14.610;2023-04-08T10:15:25;97619.00;;;4.47;84.55
4199;BME280;2113;50.946;14.610;2023-04-08T10:17:55;97616.56;;;4.44;84.85
4199;BME280;2113;50.946;14.610;2023-04-08T10:20:42;97620.97;;;4.58;85.48
4199;BME280;2113;50.946;14.610;2023-04-08T10:23:12;97618.56;;;4.69;84.58
4199;BME280;2113;50.946;14.610;2023-04-08T10:25:41;97618.22;;;4.75;83.65
4199;BME280;2113;50.946;14.610;2023-04-08T10:28:23;97627.31;;;4.52;82.89
4199;BME280;2113;50.946;14.610;2023-04-08T10:30:54;97626.78;;;4.32;84.89
4199;BME280;2113;50.946;14.610;2023-04-08T10:33:30;97628.47;;;4.33;86.12
4199;BME280;2113;50.946;14.610;2023-04-08T10:36:07;97631.44;;;4.41;85.81
4199;BME280;2113;50.946;14.610;2023-04-08T10:38:39;97642.28;;;4.47;84.75
4199;BME280;2113;50.946;14.610;2023-04-08T10:41:09;97640.78;;;4.43;84.34
4199;BME280;2113;50.946;14.610;2023-04-08T10:43:37;97639.97;;;4.27;84.58
4199;BME280;2113;50.946;14.610;2023-04-08T10:46:09;97638.19;;;4.43;84.63
4199;BME280;2113;50.946;14.610;2023-04-08T10:48:37;97640.69;;;4.45;85.13
4199;BME280;2113;50.946;14.610;2023-04-08T10:51:05;97642.00;;;4.52;85.02
4199;BME280;2113;50.946;14.610;2023-04-08T10:53:35;97639.91;;;4.58;85.26
4199;BME280;2113;50.946;14.610;2023-04-08T10:56:06;97640.16;;;4.54;84.28
4199;BME280;2113;50.946;14.610;2023-04-08T10:58:35;97650.03;;;4.47;84.17
4199;BME280;2113;50.946;14.610;2023-04-08T11:01:04;97647.53;;;4.76;83.98
4199;BME280;2113;50.946;14.610;2023-04-08T11:03:35;97646.28;;;5.25;81.52
4199;BME280;2113;50.946;14.610;2023-04-08T11:06:04;97634.63;;;5.47;81.16
4199;BME280;2113;50.946;14.610;2023-04-08T11:08:34;97634.25;;;5.53;79.25
4199;BME280;2113;50.946;14.610;2023-04-08T11:11:02;97643.19;;;5.76;78.26
4199;BME280;2113;50.946;14.610;2023-04-08T11:13:35;97638.59;;;5.38;78.81
4199;BME280;2113;50.946;14.610;2023-04-08T11:16:05;97640.19;;;5.12;81.17
4199;BME280;2113;50.946;14.610;2023-04-08T11:18:45;97633.94;;;4.72;80.67
4199;BME280;2113;50.946;14.610;2023-04-08T11:21:14;97647.16;;;4.52;82.69
4199;BME280;2113;50.946;14.610;2023-04-08T11:23:43;97652.16;;;4.55;81.75
4199;BME280;2113;50.946;14.610;2023-04-08T11:26:12;97653.16;;;4.52;82.63
4199;BME280;2113;50.946;14.610;2023-04-08T11:28:42;97653.44;;;4.78;83.02
4199;BME280;2113;50.946;14.610;2023-04-08T11:31:11;97650.56;;;4.82;82.15
4199;BME280;2113;50.946;14.610;2023-04-08T11:33:46;97658.47;;;4.65;81.23
4199;BME280;2113;50.946;14.610;2023-04-08T11:36:17;97651.34;;;4.54;81.72
4199;BME280;2113;50.946;14.610;2023-04-08T11:38:47;97656.50;;;4.54;82.29
4199;BME280;2113;50.946;14.610;2023-04-08T11:41:15;97662.09;;;4.62;80.52
4199;BME280;2113;50.946;14.610;2023-04-08T11:43:51;97651.00;;;4.60;80.55
4199;BME280;2113;50.946;14.610;2023-04-08T11:46:21;97660.94;;;4.82;81.50
4199;BME280;2113;50.946;14.610;2023-04-08T11:49:04;97654.88;;;5.12;80.56
4199;BME280;2113;50.946;14.610;2023-04-08T11:51:34;97652.56;;;5.50;79.36
4199;BME280;2113;50.946;14.610;2023-04-08T11:54:26;97651.06;;;5.88;75.97
4199;BME280;2113;50.946;14.610;2023-04-08T11:56:55;97648.50;;;6.42;74.18
4199;BME280;2113;50.946;14.610;2023-04-08T11:59:25;97648.13;;;6.61;71.52
4199;BME280;2113;50.946;14.610;2023-04-08T12:01:55;97642.38;;;7.21;72.38
4199;BME280;2113;50.946;14.610;2023-04-08T12:04:25;97651.00;;;7.46;70.98
4199;BME280;2113;50.946;14.610;2023-04-08T12:06:54;97648.06;;;6.75;71.10
4199;BME280;2113;50.946;14.610;2023-04-08T12:09:24;97642.25;;;6.84;71.46
4199;BME280;2113;50.946;14.610;2023-04-08T12:11:53;97642.94;;;6.61;71.14
4199;BME280;2113;50.946;14.610;2023-04-08T12:14:23;97649.53;;;6.39;73.25
4199;BME280;2113;50.946;14.610;2023-04-08T12:16:54;97649.41;;;6.68;73.43
4199;BME280;2113;50.946;14.610;2023-04-08T12:19:22;97647.00;;;6.65;73.55
4199;BME280;2113;50.946;14.610;2023-04-08T12:21:52;97650.91;;;6.58;73.22
4199;BME280;2113;50.946;14.610;2023-04-08T12:24:21;97657.59;;;6.08;76.38
4199;BME280;2113;50.946;14.610;2023-04-08T12:26:49;97654.94;;;5.95;75.89
4199;BME280;2113;50.946;14.610;2023-04-08T12:29:17;97662.72;;;5.95;76.85
4199;BME280;2113;50.946;14.610;2023-04-08T12:31:45;97658.19;;;5.99;75.26
4199;BME280;2113;50.946;14.610;2023-04-08T12:34:14;97659.16;;;6.11;75.30
4199;BME280;2113;50.946;14.610;2023-04-08T12:36:42;97661.88;;;5.81;75.71
4199;BME280;2113;50.946;14.610;2023-04-08T12:39:13;97660.06;;;5.68;76.37
4199;BME280;2113;50.946;14.610;2023-04-08T12:41:41;97665.22;;;5.83;76.27
4199;BME280;2113;50.946;14.610;2023-04-08T12:44:10;97669.56;;;5.96;75.49
4199;BME280;2113;50.946;14.610;2023-04-08T12:46:38;97660.84;;;6.12;75.87
4199;BME280;2113;50.946;14.610;2023-04-08T12:49:07;97669.22;;;6.15;75.96
4199;BME280;2113;50.946;14.610;2023-04-08T12:51:36;97661.22;;;6.32;75.35
4199;BME280;2113;50.946;14.610;2023-04-08T12:54:04;97673.66;;;5.86;76.06
4199;BME280;2113;50.946;14.610;2023-04-08T12:56:34;97678.19;;;5.40;76.00
4199;BME280;2113;50.946;14.610;2023-04-08T12:59:02;97683.53;;;5.23;77.92
4199;BME280;2113;50.946;14.610;2023-04-08T13:01:30;97681.50;;;5.14;78.67
4199;BME280;2113;50.946;14.610;2023-04-08T13:03:59;97670.31;;;5.13;77.61
4199;BME280;2113;50.946;14.610;2023-04-08T13:06:28;97677.34;;;5.11;78.14
4199;BME280;2113;50.946;14.610;2023-04-08T13:08:58;97682.03;;;4.90;78.36
4199;BME280;2113;50.946;14.610;2023-04-08T13:11:26;97675.72;;;4.94;79.38
4199;BME280;2113;50.946;14.610;2023-04-08T13:13:56;97682.03;;;4.90;78.98
4199;BME280;2113;50.946;14.610;2023-04-08T13:16:24;97680.09;;;5.08;78.31
4199;BME280;2113;50.946;14.610;2023-04-08T13:18:53;97675.50;;;5.13;76.86
4199;BME280;2113;50.946;14.610;2023-04-08T13:21:21;97683.09;;;5.16;77.30
4199;BME280;2113;50.946;14.610;2023-04-08T13:23:49;97684.19;;;5.12;77.89
4199;BME280;2113;50.946;14.610;2023-04-08T13:26:18;97689.28;;;5.14;78.89
4199;BME280;2113;50.946;14.610;2023-04-08T13:28:47;97682.53;;;5.11;78.21
4199;BME280;2113;50.946;14.610;2023-04-08T13:31:25;97697.66;;;4.89;78.87
4199;BME280;2113;50.946;14.610;2023-04-08T13:33:53;97693.72;;;4.82;79.05